Besiktas Bosphorus — TCOG3 — position and weather

sailwx.info

Track history (hours):
 
Tides and Currents Weather Stations Pressure Air Temp Water Temp Dewpoint Dewpoint Depression Visibility Wind Speed Wind Dir Waves Ship Positions

Besiktas Bosphorus

Last reported at 2017-Jun-27 22:32 UTC. Time now 2017-Jun-28 02:08 UTC.
Position N 37°01' E 002°06'.

Length 274 m; draft 9.4 m.

Type: Tanker. MMSI: 271000817.

Date/timePositionNaut miles runAvg speedWind from/ knotsBaromVisibWave heightAir tempDewpointWater temp
2017-Jun-27 22:32N 37°01' E 002°06'113.9
2017-Jun-27 22:30N 37°01' E 002°05'714.3
2017-Jun-27 22:00N 36°60' E 001°57'714.2
2017-Jun-27 21:30N 36°58' E 001°48'714.1
2017-Jun-27 21:00N 36°57' E 001°39'714.1
2017-Jun-27 20:30N 36°56' E 001°31'714.1
2017-Jun-27 20:00N 36°54' E 001°22'714.2
2017-Jun-27 19:31N 36°53' E 001°13'713.9
2017-Jun-27 19:00N 36°52' E 001°05'713.4
2017-Jun-27 18:30N 36°51' E 000°56'613.2
2017-Jun-27 18:00N 36°49' E 000°49'613.0
2017-Jun-27 17:30N 36°48' E 000°41'713.3
2017-Jun-27 16:59N 36°47' E 000°32'713.7
2017-Jun-27 16:30N 36°46' E 000°24'713.9
2017-Jun-27 16:01N 36°44' E 000°16'714.1
2017-Jun-27 15:31N 36°43' E 000°07'612.6
2017-Jun-27 15:00N 36°42' W 000°01'1 1.3
2017-Jun-27 14:30N 36°42' W 000°02'1 0.8
2017-Jun-27 12:50N 36°41' W 000°03'0 0.6
2017-Jun-27 12:30N 36°41' W 000°03'0 0.6
2017-Jun-27 12:00N 36°41' W 000°04'0 0.7
2017-Jun-27 11:30N 36°41' W 000°04'0 0.6
2017-Jun-27 10:57N 36°41' W 000°04'0 0.5
2017-Jun-27 10:29N 36°41' W 000°05'0 0.5
2017-Jun-27 10:00N 36°41' W 000°05'0 0.6
2017-Jun-27 09:30N 36°41' W 000°05'0 0.7
2017-Jun-27 08:59N 36°41' W 000°06'0 0.7
2017-Jun-27 08:29N 36°41' W 000°06'0 0.6
2017-Jun-27 07:58N 36°40' W 000°07'0 0.6
2017-Jun-27 07:09N 36°40' W 000°07'0 1.1
2017-Jun-27 06:59N 36°40' W 000°07'2 3.0
2017-Jun-27 06:18N 36°40' W 000°10'2 8.2
2017-Jun-27 06:00N 36°40' W 000°13'5 9.0
2017-Jun-27 05:30N 36°39' W 000°19'4 8.8
2017-Jun-27 05:00N 36°38' W 000°24'5 8.8
2017-Jun-27 04:29N 36°37' W 000°29'4 9.2
2017-Jun-27 04:00N 36°36' W 000°35'5 9.1
2017-Jun-27 03:30N 36°35' W 000°40'5 9.1
2017-Jun-27 03:00N 36°35' W 000°46'5 9.2
2017-Jun-27 02:30N 36°34' W 000°52'5 9.1
2017-Jun-27 02:00N 36°33' W 000°57'5 9.1
2017-Jun-27 01:30N 36°32' W 001°03'4 9.0
2017-Jun-27 01:00N 36°31' W 001°08'5 9.3
2017-Jun-27 00:30N 36°29' W 001°14'5 9.6
2017-Jun-27 00:00N 36°28' W 001°19'5 9.5
2017-Jun-26 23:29N 36°27' W 001°25'5 9.7
2017-Jun-26 23:00N 36°26' W 001°31'5 9.6
2017-Jun-26 22:28N 36°26' W 001°38'24 9.9
2017-Jun-26 20:00N 36°22' W 002°08'149 9.6
2017-Jun-26 04:30N 36°00' W 005°10'611.7
2017-Jun-26 04:01N 35°59' W 005°17'611.2
2017-Jun-26 03:30N 35°58' W 005°24'510.4
2017-Jun-26 03:00N 35°56' W 005°30'6 9.2
2017-Jun-26 02:24N 35°55' W 005°37'5 7.2
2017-Jun-26 01:41N 35°55' W 005°43'1 5.8
2017-Jun-26 01:30N 35°55' W 005°44'4 7.1
2017-Jun-26 01:00N 35°54' W 005°49'4 7.8
2017-Jun-26 00:30N 35°54' W 005°53'4 7.8
2017-Jun-26 00:00N 35°54' W 005°58'4 8.4
2017-Jun-25 23:30N 35°54' W 006°03'5 8.5
2017-Jun-25 22:56N 35°53' W 006°09'11 8.8
2017-Jun-25 21:45N 35°53' W 006°22'4 9.4
2017-Jun-25 21:21N 35°53' W 006°27'3 9.4
2017-Jun-25 21:00N 35°53' W 006°31'5 9.4
2017-Jun-25 20:31N 35°53' W 006°37'16 8.9
2017-Jun-25 18:46N 35°56' W 006°56'14 9.2
2017-Jun-25 17:16N 35°60' W 007°12'2 8.9
2017-Jun-25 17:00N 36°00' W 007°15'5 9.2
2017-Jun-25 16:30N 36°02' W 007°20'53 9.7
2017-Jun-25 11:06N 36°18' W 008°22'110.3
2017-Jun-25 11:00N 36°19' W 008°23'510.3
2017-Jun-25 10:30N 36°20' W 008°29'510.3
2017-Jun-25 10:00N 36°21' W 008°35'612.5
2017-Jun-25 09:30N 36°23' W 008°43'713.9
2017-Jun-25 09:00N 36°24' W 008°51'714.1
2017-Jun-25 08:30N 36°26' W 008°60'713.7
2017-Jun-25 08:00N 36°27' W 009°08'713.5
2017-Jun-25 07:30N 36°29' W 009°16'1112.9
2017-Jun-25 06:37N 36°36' W 009°27'513.9
2017-Jun-25 06:16N 36°40' W 009°31'513.3
2017-Jun-25 05:53N 36°43' W 009°36'512.7
2017-Jun-25 05:30N 36°48' W 009°39'2913.0
2017-Jun-25 03:17N 37°16' W 009°47'413.1
2017-Jun-25 03:00N 37°19' W 009°48'613.0
2017-Jun-25 02:30N 37°25' W 009°50'612.9
2017-Jun-25 02:00N 37°32' W 009°52'713.4
2017-Jun-25 01:30N 37°38' W 009°54'713.4
2017-Jun-25 00:58N 37°45' W 009°56'613.6
2017-Jun-25 00:30N 37°51' W 009°57'713.7
2017-Jun-25 00:00N 37°58' W 009°59'713.9
2017-Jun-24 23:31N 38°05' W 010°01'713.6
2017-Jun-24 23:01N 38°11' W 010°03'713.4
2017-Jun-24 22:30N 38°18' W 010°05'713.6
2017-Jun-24 22:01N 38°25' W 010°07'713.8
2017-Jun-24 21:30N 38°31' W 010°10'713.9
2017-Jun-24 21:01N 38°38' W 010°11'714.2
2017-Jun-24 20:31N 38°45' W 010°12'714.1
2017-Jun-24 19:59N 38°53' W 010°13'713.9
2017-Jun-24 19:30N 38°59' W 010°12'714.0
2017-Jun-24 19:00N 39°06' W 010°12'714.1
2017-Jun-24 18:28N 39°14' W 010°12'613.6
2017-Jun-24 18:00N 39°20' W 010°12'50412.9
2017-Jun-23 03:02N 47°24' W 007°02'9913.1
2017-Jun-22 19:29N 48°50' W 005°50'714.3
2017-Jun-22 19:00N 48°56' W 005°43'914.2
2017-Jun-22 18:23N 49°01' W 005°32'713.7
2017-Jun-22 17:54N 49°04' W 005°24'513.3
2017-Jun-22 17:30N 49°07' W 005°17'712.8
2017-Jun-22 16:58N 49°10' W 005°08'912.3
2017-Jun-22 16:13N 49°15' W 004°55'1811.7
2017-Jun-22 14:41N 49°23' W 004°31'711.8
2017-Jun-22 14:03N 49°27' W 004°21'19 8.9
2017-Jun-22 11:55N 49°37' W 003°56'5 9.6
2017-Jun-22 11:26N 49°40' W 003°50'5 9.7
2017-Jun-22 10:57N 49°42' W 003°44'5 9.9
2017-Jun-22 10:30N 49°45' W 003°38'6 9.9
2017-Jun-22 09:51N 49°48' W 003°29'3 9.7
2017-Jun-22 09:30N 49°49' W 003°25'5 9.5
2017-Jun-22 09:00N 49°52' W 003°18'6 9.0
2017-Jun-22 08:18N 49°55' W 003°10'3 8.4
2017-Jun-22 07:58N 49°56' W 003°06'4 8.0
2017-Jun-22 07:30N 49°58' W 003°01'4 7.5
2017-Jun-22 07:00N 50°00' W 002°56'3 7.0
2017-Jun-22 06:30N 50°01' W 002°51'3 6.6
2017-Jun-22 05:59N 50°02' W 002°46'3 6.4
2017-Jun-22 05:30N 50°03' W 002°41'3 6.4
2017-Jun-22 05:00N 50°04' W 002°36'3 6.4
2017-Jun-22 04:29N 50°05' W 002°31'3 6.6
2017-Jun-22 04:00N 50°05' W 002°27'4 7.0
2017-Jun-22 03:30N 50°07' W 002°21'4 7.6
2017-Jun-22 03:00N 50°08' W 002°16'4 8.3
2017-Jun-22 02:30N 50°09' W 002°10'5 9.0
2017-Jun-22 02:00N 50°11' W 002°03'510.0
2017-Jun-22 01:30N 50°12' W 001°56'510.5
2017-Jun-22 01:00N 50°14' W 001°48'511.0
2017-Jun-22 00:30N 50°15' W 001°39'510.2
2017-Jun-22 00:00N 50°15' W 001°32'611.2
2017-Jun-21 23:30N 50°17' W 001°23'611.3
2017-Jun-21 22:59N 50°18' W 001°14'511.2
2017-Jun-21 22:30N 50°20' W 001°06'510.7
2017-Jun-21 22:00N 50°21' W 000°58'5 9.8
2017-Jun-21 21:30N 50°22' W 000°50'4 8.8
2017-Jun-21 21:00N 50°24' W 000°44'4 8.2
2017-Jun-21 20:30N 50°25' W 000°38'4 7.6
2017-Jun-21 20:00N 50°26' W 000°32'4 7.5
2017-Jun-21 19:30N 50°27' W 000°26'4 7.2
2017-Jun-21 19:00N 50°27' W 000°21'3 6.9
2017-Jun-21 18:30N 50°28' W 000°15'3 6.9
2017-Jun-21 18:00N 50°29' W 000°10'4 7.2
2017-Jun-21 17:30N 50°30' W 000°05'4 7.5
2017-Jun-21 17:00N 50°31' E 000°01'4 8.1
2017-Jun-21 16:30N 50°32' E 000°07'4 8.7
2017-Jun-21 16:00N 50°34' E 000°14'5 9.6
2017-Jun-21 15:30N 50°35' E 000°21'510.3
2017-Jun-21 15:00N 50°36' E 000°29'510.4
2017-Jun-21 14:30N 50°38' E 000°36'1110.6
2017-Jun-21 13:30N 50°44' E 000°50'510.2
2017-Jun-21 13:00N 50°47' E 000°57'5 9.9
2017-Jun-21 12:30N 50°49' E 001°04'5 9.4
2017-Jun-21 12:00N 50°52' E 001°10'4 8.9
2017-Jun-21 11:30N 50°54' E 001°16'4 8.0
2017-Jun-21 11:00N 50°57' E 001°21'4 7.7
2017-Jun-21 10:30N 50°60' E 001°24'3 6.9
2017-Jun-21 10:00N 51°03' E 001°28'3 6.5
2017-Jun-21 09:30N 51°05' E 001°32'3 6.4
2017-Jun-21 09:00N 51°07' E 001°35'3 6.9
2017-Jun-21 08:30N 51°10' E 001°39'4 7.3
2017-Jun-21 08:00N 51°12' E 001°43'4 8.3
2017-Jun-21 07:30N 51°15' E 001°47'5 9.2
2017-Jun-21 07:00N 51°20' E 001°51'510.0
2017-Jun-21 06:30N 51°24' E 001°55'510.7
2017-Jun-21 06:00N 51°28' E 001°60'510.9
2017-Jun-21 05:30N 51°32' E 002°06'510.8
2017-Jun-21 05:00N 51°36' E 002°11'510.9
2017-Jun-21 04:30N 51°40' E 002°17'510.7
2017-Jun-21 04:00N 51°44' E 002°23'510.1
2017-Jun-21 03:30N 51°48' E 002°28'5 9.8
2017-Jun-21 03:00N 51°52' E 002°33'5 9.1
2017-Jun-21 02:30N 51°55' E 002°39'5 9.1
2017-Jun-21 01:56N 51°57' E 002°46'4 8.9
2017-Jun-21 01:26N 51°59' E 002°53'4 8.8
2017-Jun-21 01:00N 52°00' E 002°59'4 8.5
2017-Jun-21 00:30N 52°02' E 003°05'4 8.5
2017-Jun-21 00:00N 52°02' E 003°12'4 8.8
2017-Jun-20 23:30N 52°03' E 003°19'4 8.1
2017-Jun-20 23:00N 52°03' E 003°26'4 8.0
2017-Jun-20 22:30N 52°03' E 003°32'4 8.7
2017-Jun-20 22:00N 52°04' E 003°39'5 9.3
2017-Jun-20 21:30N 52°04' E 003°47'4 8.8
2017-Jun-20 21:00N 52°03' E 003°54'511.0
2017-Jun-20 20:30N 52°00' E 004°01'4 7.7
2017-Jun-20 20:00N 51°57' E 004°05'0 0.3
2017-Jun-20 19:30N 51°57' E 004°05'0 0.0
2017-Jun-20 18:59N 51°57' E 004°05'0 0.0
2017-Jun-20 18:30N 51°57' E 004°05'0 0.0
2017-Jun-20 18:00N 51°57' E 004°05'0 0.0
2017-Jun-20 17:30N 51°57' E 004°05'0 0.0
2017-Jun-20 17:00N 51°57' E 004°05'0 0.0
2017-Jun-20 16:30N 51°57' E 004°05'0 0.0
2017-Jun-20 16:00N 51°57' E 004°05'0 0.0
2017-Jun-20 15:30N 51°57' E 004°05'0 0.0
2017-Jun-20 15:00N 51°57' E 004°05'0 0.0
2017-Jun-20 14:30N 51°57' E 004°05'0 0.0
2017-Jun-20 13:30N 51°57' E 004°05'0 0.0
2017-Jun-20 13:00N 51°57' E 004°05'0 0.0
2017-Jun-20 12:30N 51°57' E 004°05'0 0.0
2017-Jun-20 12:00N 51°57' E 004°05'0 0.0
2017-Jun-20 11:30N 51°57' E 004°05'0 0.0
2017-Jun-20 11:00N 51°57' E 004°05'0 0.0
2017-Jun-20 10:30N 51°57' E 004°05'0 0.0
2017-Jun-20 10:00N 51°57' E 004°05'0 0.0
2017-Jun-20 09:30N 51°57' E 004°05'0 0.0
2017-Jun-20 09:00N 51°57' E 004°05'0 0.0
2017-Jun-20 08:30N 51°57' E 004°05'0 0.0
2017-Jun-20 08:00N 51°57' E 004°05'0 0.0
2017-Jun-20 07:30N 51°57' E 004°05'0 0.0
2017-Jun-20 07:00N 51°57' E 004°05'0 0.0
2017-Jun-20 06:30N 51°57' E 004°05'0 0.0
2017-Jun-20 06:00N 51°57' E 004°05'0 0.0
2017-Jun-20 05:30N 51°57' E 004°05'0 0.0
2017-Jun-20 05:00N 51°57' E 004°05'0 0.0
2017-Jun-20 04:30N 51°57' E 004°05'0 0.0
2017-Jun-20 04:00N 51°57' E 004°05'0 0.0
2017-Jun-20 03:30N 51°57' E 004°05'0 0.0
2017-Jun-20 03:00N 51°57' E 004°05'0 0.0
2017-Jun-20 02:30N 51°57' E 004°05'0 0.0
2017-Jun-20 02:00N 51°57' E 004°05'0 0.0
2017-Jun-20 01:30N 51°57' E 004°05'0 0.0
2017-Jun-20 01:00N 51°57' E 004°05'0 0.0
2017-Jun-20 00:30N 51°57' E 004°05'0 0.0
2017-Jun-20 00:00N 51°57' E 004°05'0 0.0
2017-Jun-19 23:30N 51°57' E 004°05'0 0.0
2017-Jun-19 23:00N 51°57' E 004°05'0 0.0
2017-Jun-19 22:30N 51°57' E 004°05'0 0.0
2017-Jun-19 22:00N 51°57' E 004°05'0 0.0
2017-Jun-19 21:30N 51°57' E 004°05'0 0.0
2017-Jun-19 21:00N 51°57' E 004°05'0 0.0
2017-Jun-19 20:30N 51°57' E 004°05'0 0.0
2017-Jun-19 20:00N 51°57' E 004°05'0 0.0
2017-Jun-19 19:30N 51°57' E 004°05'0 0.0
2017-Jun-19 18:57N 51°57' E 004°05'0 0.0
2017-Jun-19 18:30N 51°57' E 004°05'0 0.0
2017-Jun-19 18:00N 51°57' E 004°05'0 0.0
2017-Jun-19 17:30N 51°57' E 004°05'0 0.0
2017-Jun-19 17:00N 51°57' E 004°05'0 0.0
2017-Jun-19 16:30N 51°57' E 004°05'0 0.0
2017-Jun-19 16:00N 51°57' E 004°05'0 0.0
2017-Jun-19 15:30N 51°57' E 004°05'0 0.0
2017-Jun-19 15:00N 51°57' E 004°05'0 0.0
2017-Jun-19 14:30N 51°57' E 004°05'0 0.0
2017-Jun-19 13:30N 51°57' E 004°05'0 0.0
2017-Jun-19 13:00N 51°57' E 004°05'0 0.0
2017-Jun-19 12:30N 51°57' E 004°05'0 0.0
2017-Jun-19 12:00N 51°57' E 004°05'0 0.0
2017-Jun-19 11:30N 51°57' E 004°05'0 0.0
2017-Jun-19 11:00N 51°57' E 004°05'0 0.0
2017-Jun-19 10:30N 51°57' E 004°05'0 0.0
2017-Jun-19 10:00N 51°57' E 004°05'0 0.0
2017-Jun-19 09:30N 51°57' E 004°05'0 0.0
2017-Jun-19 09:00N 51°57' E 004°05'0 0.0
2017-Jun-19 08:30N 51°57' E 004°05'0 0.0
2017-Jun-19 08:00N 51°57' E 004°05'0 0.0
2017-Jun-19 07:30N 51°57' E 004°05'0 0.0
2017-Jun-19 07:00N 51°57' E 004°05'0 0.0
2017-Jun-19 06:30N 51°57' E 004°05'0 0.0
2017-Jun-19 06:00N 51°57' E 004°05'0 0.0
2017-Jun-19 05:30N 51°57' E 004°05'0 0.0
2017-Jun-19 05:00N 51°57' E 004°05'0 0.0
2017-Jun-19 04:30N 51°57' E 004°05'0 0.0
2017-Jun-19 04:00N 51°57' E 004°05'0 0.0
2017-Jun-19 03:30N 51°57' E 004°05'0 0.0
2017-Jun-19 03:00N 51°57' E 004°05'0 0.0
2017-Jun-19 02:30N 51°57' E 004°05'0 0.0
2017-Jun-19 02:00N 51°57' E 004°05'0 0.0
2017-Jun-19 01:30N 51°57' E 004°05'0 0.0
2017-Jun-19 00:58N 51°57' E 004°05'0 0.0
2017-Jun-19 00:30N 51°57' E 004°05'0 0.0
2017-Jun-19 00:00N 51°57' E 004°05'0 0.0
2017-Jun-18 23:30N 51°57' E 004°05'0 0.0
2017-Jun-18 23:00N 51°57' E 004°05'0 0.0
2017-Jun-18 22:30N 51°57' E 004°05'0 0.0
2017-Jun-18 22:00N 51°57' E 004°05'0 0.0
2017-Jun-18 21:30N 51°57' E 004°05'0 0.0
2017-Jun-18 21:00N 51°57' E 004°05'0 0.0
2017-Jun-18 20:30N 51°57' E 004°05'0 0.0
2017-Jun-18 20:00N 51°57' E 004°05'0 0.0
2017-Jun-18 19:30N 51°57' E 004°05'0 0.0
2017-Jun-18 19:00N 51°57' E 004°05'0 0.0
2017-Jun-18 18:30N 51°57' E 004°05'0 0.0
2017-Jun-18 18:00N 51°57' E 004°05'0 0.0
2017-Jun-18 17:30N 51°57' E 004°05'0 0.0
2017-Jun-18 17:00N 51°57' E 004°05'0 0.0
2017-Jun-18 16:30N 51°57' E 004°05'0 0.0
2017-Jun-18 16:00N 51°57' E 004°05'0 0.0
2017-Jun-18 15:30N 51°57' E 004°05'0 0.0
2017-Jun-18 15:00N 51°57' E 004°05'0 0.0
2017-Jun-18 14:00N 51°57' E 004°05'0 0.0
2017-Jun-18 13:30N 51°57' E 004°05'0 0.0
2017-Jun-18 13:00N 51°57' E 004°05'0 0.0
2017-Jun-18 12:30N 51°57' E 004°05'0 0.0
2017-Jun-18 12:00N 51°57' E 004°05'0 0.0
2017-Jun-18 11:30N 51°57' E 004°05'0 0.0
2017-Jun-18 11:00N 51°57' E 004°05'0 0.0
2017-Jun-18 10:30N 51°57' E 004°05'0 0.0
2017-Jun-18 10:00N 51°57' E 004°05'0 0.0
2017-Jun-18 09:30N 51°57' E 004°05'0 0.0
2017-Jun-18 09:00N 51°57' E 004°05'0 0.0
2017-Jun-18 08:31N 51°57' E 004°05'0 0.0
2017-Jun-18 08:01N 51°57' E 004°05'0 0.0
2017-Jun-18 07:31N 51°57' E 004°05'0 0.2
2017-Jun-18 07:00N 51°57' E 004°05'1 2.4
2017-Jun-18 06:30N 51°58' E 004°05'4 8.8
2017-Jun-18 06:00N 52°00' E 003°59'612.4
2017-Jun-18 05:31N 52°01' E 003°49'4 8.9
2017-Jun-18 05:00N 52°01' E 003°42'611.4
2017-Jun-18 04:30N 52°00' E 003°33'5 9.9
2017-Jun-18 04:00N 51°59' E 003°25'5 9.0
2017-Jun-18 03:30N 51°55' E 003°20'3 7.0
2017-Jun-18 03:00N 51°54' E 003°15'612.2
2017-Jun-18 02:30N 51°52' E 003°06'612.3
2017-Jun-18 02:00N 51°50' E 002°57'2211.6
2017-Jun-18 00:06N 51°38' E 002°27'111.8
2017-Jun-18 00:00N 51°37' E 002°25'612.1
2017-Jun-17 23:31N 51°33' E 002°19'612.5
2017-Jun-17 23:01N 51°28' E 002°13'  
Track history (hours):
 
Tides and Currents Weather Stations Pressure Air Temp Water Temp Dewpoint Dewpoint Depression Visibility Wind Speed Wind Dir Waves Ship Positions

Besiktas Bosphorus

Last reported at 2017-Jun-27 22:32 UTC. Time now 2017-Jun-28 02:08 UTC.
Position N 37°01' E 002°06'.

Length 274 m; draft 9.4 m.

Type: Tanker. MMSI: 271000817.

Date/timePositionNaut miles runAvg speedWind from/ knotsBaromVisibWave heightAir tempDewpointWater temp
2017-Jun-27 22:32N 37°01' E 002°06'113.9
2017-Jun-27 22:30N 37°01' E 002°05'714.3
2017-Jun-27 22:00N 36°60' E 001°57'714.2
2017-Jun-27 21:30N 36°58' E 001°48'714.1
2017-Jun-27 21:00N 36°57' E 001°39'714.1
2017-Jun-27 20:30N 36°56' E 001°31'714.1
2017-Jun-27 20:00N 36°54' E 001°22'714.2
2017-Jun-27 19:31N 36°53' E 001°13'713.9
2017-Jun-27 19:00N 36°52' E 001°05'713.4
2017-Jun-27 18:30N 36°51' E 000°56'613.2
2017-Jun-27 18:00N 36°49' E 000°49'613.0
2017-Jun-27 17:30N 36°48' E 000°41'713.3
2017-Jun-27 16:59N 36°47' E 000°32'713.7
2017-Jun-27 16:30N 36°46' E 000°24'713.9
2017-Jun-27 16:01N 36°44' E 000°16'714.1
2017-Jun-27 15:31N 36°43' E 000°07'612.6
2017-Jun-27 15:00N 36°42' W 000°01'1 1.3
2017-Jun-27 14:30N 36°42' W 000°02'1 0.8
2017-Jun-27 12:50N 36°41' W 000°03'0 0.6
2017-Jun-27 12:30N 36°41' W 000°03'0 0.6
2017-Jun-27 12:00N 36°41' W 000°04'0 0.7
2017-Jun-27 11:30N 36°41' W 000°04'0 0.6
2017-Jun-27 10:57N 36°41' W 000°04'0 0.5
2017-Jun-27 10:29N 36°41' W 000°05'0 0.5
2017-Jun-27 10:00N 36°41' W 000°05'0 0.6
2017-Jun-27 09:30N 36°41' W 000°05'0 0.7
2017-Jun-27 08:59N 36°41' W 000°06'0 0.7
2017-Jun-27 08:29N 36°41' W 000°06'0 0.6
2017-Jun-27 07:58N 36°40' W 000°07'0 0.6
2017-Jun-27 07:09N 36°40' W 000°07'0 1.1
2017-Jun-27 06:59N 36°40' W 000°07'2 3.0
2017-Jun-27 06:18N 36°40' W 000°10'2 8.2
2017-Jun-27 06:00N 36°40' W 000°13'5 9.0
2017-Jun-27 05:30N 36°39' W 000°19'4 8.8
2017-Jun-27 05:00N 36°38' W 000°24'5 8.8
2017-Jun-27 04:29N 36°37' W 000°29'4 9.2
2017-Jun-27 04:00N 36°36' W 000°35'5 9.1
2017-Jun-27 03:30N 36°35' W 000°40'5 9.1
2017-Jun-27 03:00N 36°35' W 000°46'5 9.2
2017-Jun-27 02:30N 36°34' W 000°52'5 9.1
2017-Jun-27 02:00N 36°33' W 000°57'5 9.1
2017-Jun-27 01:30N 36°32' W 001°03'4 9.0
2017-Jun-27 01:00N 36°31' W 001°08'5 9.3
2017-Jun-27 00:30N 36°29' W 001°14'5 9.6
2017-Jun-27 00:00N 36°28' W 001°19'5 9.5
2017-Jun-26 23:29N 36°27' W 001°25'5 9.7
2017-Jun-26 23:00N 36°26' W 001°31'5 9.6
2017-Jun-26 22:28N 36°26' W 001°38'24 9.9
2017-Jun-26 20:00N 36°22' W 002°08'149 9.6
2017-Jun-26 04:30N 36°00' W 005°10'611.7
2017-Jun-26 04:01N 35°59' W 005°17'611.2
2017-Jun-26 03:30N 35°58' W 005°24'510.4
2017-Jun-26 03:00N 35°56' W 005°30'6 9.2
2017-Jun-26 02:24N 35°55' W 005°37'5 7.2
2017-Jun-26 01:41N 35°55' W 005°43'1 5.8
2017-Jun-26 01:30N 35°55' W 005°44'4 7.1
2017-Jun-26 01:00N 35°54' W 005°49'4 7.8
2017-Jun-26 00:30N 35°54' W 005°53'4 7.8
2017-Jun-26 00:00N 35°54' W 005°58'4 8.4
2017-Jun-25 23:30N 35°54' W 006°03'5 8.5
2017-Jun-25 22:56N 35°53' W 006°09'11 8.8
2017-Jun-25 21:45N 35°53' W 006°22'4 9.4
2017-Jun-25 21:21N 35°53' W 006°27'3 9.4
2017-Jun-25 21:00N 35°53' W 006°31'5 9.4
2017-Jun-25 20:31N 35°53' W 006°37'16 8.9
2017-Jun-25 18:46N 35°56' W 006°56'14 9.2
2017-Jun-25 17:16N 35°60' W 007°12'2 8.9
2017-Jun-25 17:00N 36°00' W 007°15'5 9.2
2017-Jun-25 16:30N 36°02' W 007°20'53 9.7
2017-Jun-25 11:06N 36°18' W 008°22'110.3
2017-Jun-25 11:00N 36°19' W 008°23'510.3
2017-Jun-25 10:30N 36°20' W 008°29'510.3
2017-Jun-25 10:00N 36°21' W 008°35'612.5
2017-Jun-25 09:30N 36°23' W 008°43'713.9
2017-Jun-25 09:00N 36°24' W 008°51'714.1
2017-Jun-25 08:30N 36°26' W 008°60'713.7
2017-Jun-25 08:00N 36°27' W 009°08'713.5
2017-Jun-25 07:30N 36°29' W 009°16'1112.9
2017-Jun-25 06:37N 36°36' W 009°27'513.9
2017-Jun-25 06:16N 36°40' W 009°31'513.3
2017-Jun-25 05:53N 36°43' W 009°36'512.7
2017-Jun-25 05:30N 36°48' W 009°39'2913.0
2017-Jun-25 03:17N 37°16' W 009°47'413.1
2017-Jun-25 03:00N 37°19' W 009°48'613.0
2017-Jun-25 02:30N 37°25' W 009°50'612.9
2017-Jun-25 02:00N 37°32' W 009°52'713.4
2017-Jun-25 01:30N 37°38' W 009°54'713.4
2017-Jun-25 00:58N 37°45' W 009°56'613.6
2017-Jun-25 00:30N 37°51' W 009°57'713.7
2017-Jun-25 00:00N 37°58' W 009°59'713.9
2017-Jun-24 23:31N 38°05' W 010°01'713.6
2017-Jun-24 23:01N 38°11' W 010°03'713.4
2017-Jun-24 22:30N 38°18' W 010°05'713.6
2017-Jun-24 22:01N 38°25' W 010°07'713.8
2017-Jun-24 21:30N 38°31' W 010°10'713.9
2017-Jun-24 21:01N 38°38' W 010°11'714.2
2017-Jun-24 20:31N 38°45' W 010°12'714.1
2017-Jun-24 19:59N 38°53' W 010°13'713.9
2017-Jun-24 19:30N 38°59' W 010°12'714.0
2017-Jun-24 19:00N 39°06' W 010°12'714.1
2017-Jun-24 18:28N 39°14' W 010°12'613.6
2017-Jun-24 18:00N 39°20' W 010°12'50412.9
2017-Jun-23 03:02N 47°24' W 007°02'9913.1
2017-Jun-22 19:29N 48°50' W 005°50'714.3
2017-Jun-22 19:00N 48°56' W 005°43'914.2
2017-Jun-22 18:23N 49°01' W 005°32'713.7
2017-Jun-22 17:54N 49°04' W 005°24'513.3
2017-Jun-22 17:30N 49°07' W 005°17'712.8
2017-Jun-22 16:58N 49°10' W 005°08'912.3
2017-Jun-22 16:13N 49°15' W 004°55'1811.7
2017-Jun-22 14:41N 49°23' W 004°31'711.8
2017-Jun-22 14:03N 49°27' W 004°21'19 8.9
2017-Jun-22 11:55N 49°37' W 003°56'5 9.6
2017-Jun-22 11:26N 49°40' W 003°50'5 9.7
2017-Jun-22 10:57N 49°42' W 003°44'5 9.9
2017-Jun-22 10:30N 49°45' W 003°38'6 9.9
2017-Jun-22 09:51N 49°48' W 003°29'3 9.7
2017-Jun-22 09:30N 49°49' W 003°25'5 9.5
2017-Jun-22 09:00N 49°52' W 003°18'6 9.0
2017-Jun-22 08:18N 49°55' W 003°10'3 8.4
2017-Jun-22 07:58N 49°56' W 003°06'4 8.0
2017-Jun-22 07:30N 49°58' W 003°01'4 7.5
2017-Jun-22 07:00N 50°00' W 002°56'3 7.0
2017-Jun-22 06:30N 50°01' W 002°51'3 6.6
2017-Jun-22 05:59N 50°02' W 002°46'3 6.4
2017-Jun-22 05:30N 50°03' W 002°41'3 6.4
2017-Jun-22 05:00N 50°04' W 002°36'3 6.4
2017-Jun-22 04:29N 50°05' W 002°31'3 6.6
2017-Jun-22 04:00N 50°05' W 002°27'4 7.0
2017-Jun-22 03:30N 50°07' W 002°21'4 7.6
2017-Jun-22 03:00N 50°08' W 002°16'4 8.3
2017-Jun-22 02:30N 50°09' W 002°10'5 9.0
2017-Jun-22 02:00N 50°11' W 002°03'510.0
2017-Jun-22 01:30N 50°12' W 001°56'510.5
2017-Jun-22 01:00N 50°14' W 001°48'511.0
2017-Jun-22 00:30N 50°15' W 001°39'510.2
2017-Jun-22 00:00N 50°15' W 001°32'611.2
2017-Jun-21 23:30N 50°17' W 001°23'611.3
2017-Jun-21 22:59N 50°18' W 001°14'511.2
2017-Jun-21 22:30N 50°20' W 001°06'510.7
2017-Jun-21 22:00N 50°21' W 000°58'5 9.8
2017-Jun-21 21:30N 50°22' W 000°50'4 8.8
2017-Jun-21 21:00N 50°24' W 000°44'4 8.2
2017-Jun-21 20:30N 50°25' W 000°38'4 7.6
2017-Jun-21 20:00N 50°26' W 000°32'4 7.5
2017-Jun-21 19:30N 50°27' W 000°26'4 7.2
2017-Jun-21 19:00N 50°27' W 000°21'3 6.9
2017-Jun-21 18:30N 50°28' W 000°15'3 6.9
2017-Jun-21 18:00N 50°29' W 000°10'4 7.2
2017-Jun-21 17:30N 50°30' W 000°05'4 7.5
2017-Jun-21 17:00N 50°31' E 000°01'4 8.1
2017-Jun-21 16:30N 50°32' E 000°07'4 8.7
2017-Jun-21 16:00N 50°34' E 000°14'5 9.6
2017-Jun-21 15:30N 50°35' E 000°21'510.3
2017-Jun-21 15:00N 50°36' E 000°29'510.4
2017-Jun-21 14:30N 50°38' E 000°36'1110.6
2017-Jun-21 13:30N 50°44' E 000°50'510.2
2017-Jun-21 13:00N 50°47' E 000°57'5 9.9
2017-Jun-21 12:30N 50°49' E 001°04'5 9.4
2017-Jun-21 12:00N 50°52' E 001°10'4 8.9
2017-Jun-21 11:30N 50°54' E 001°16'4 8.0
2017-Jun-21 11:00N 50°57' E 001°21'4 7.7
2017-Jun-21 10:30N 50°60' E 001°24'3 6.9
2017-Jun-21 10:00N 51°03' E 001°28'3 6.5
2017-Jun-21 09:30N 51°05' E 001°32'3 6.4
2017-Jun-21 09:00N 51°07' E 001°35'3 6.9
2017-Jun-21 08:30N 51°10' E 001°39'4 7.3
2017-Jun-21 08:00N 51°12' E 001°43'4 8.3
2017-Jun-21 07:30N 51°15' E 001°47'5 9.2
2017-Jun-21 07:00N 51°20' E 001°51'510.0
2017-Jun-21 06:30N 51°24' E 001°55'510.7
2017-Jun-21 06:00N 51°28' E 001°60'510.9
2017-Jun-21 05:30N 51°32' E 002°06'510.8
2017-Jun-21 05:00N 51°36' E 002°11'510.9
2017-Jun-21 04:30N 51°40' E 002°17'510.7
2017-Jun-21 04:00N 51°44' E 002°23'510.1
2017-Jun-21 03:30N 51°48' E 002°28'5 9.8
2017-Jun-21 03:00N 51°52' E 002°33'5 9.1
2017-Jun-21 02:30N 51°55' E 002°39'5 9.1
2017-Jun-21 01:56N 51°57' E 002°46'4 8.9
2017-Jun-21 01:26N 51°59' E 002°53'4 8.8
2017-Jun-21 01:00N 52°00' E 002°59'4 8.5
2017-Jun-21 00:30N 52°02' E 003°05'4 8.5
2017-Jun-21 00:00N 52°02' E 003°12'4 8.8
2017-Jun-20 23:30N 52°03' E 003°19'4 8.1
2017-Jun-20 23:00N 52°03' E 003°26'4 8.0
2017-Jun-20 22:30N 52°03' E 003°32'4 8.7
2017-Jun-20 22:00N 52°04' E 003°39'5 9.3
2017-Jun-20 21:30N 52°04' E 003°47'4 8.8
2017-Jun-20 21:00N 52°03' E 003°54'511.0
2017-Jun-20 20:30N 52°00' E 004°01'4 7.7
2017-Jun-20 20:00N 51°57' E 004°05'0 0.3
2017-Jun-20 19:30N 51°57' E 004°05'0 0.0
2017-Jun-20 18:59N 51°57' E 004°05'0 0.0
2017-Jun-20 18:30N 51°57' E 004°05'0 0.0
2017-Jun-20 18:00N 51°57' E 004°05'0 0.0
2017-Jun-20 17:30N 51°57' E 004°05'0 0.0
2017-Jun-20 17:00N 51°57' E 004°05'0 0.0
2017-Jun-20 16:30N 51°57' E 004°05'0 0.0
2017-Jun-20 16:00N 51°57' E 004°05'0 0.0
2017-Jun-20 15:30N 51°57' E 004°05'0 0.0
2017-Jun-20 15:00N 51°57' E 004°05'0 0.0
2017-Jun-20 14:30N 51°57' E 004°05'0 0.0
2017-Jun-20 13:30N 51°57' E 004°05'0 0.0
2017-Jun-20 13:00N 51°57' E 004°05'0 0.0
2017-Jun-20 12:30N 51°57' E 004°05'0 0.0
2017-Jun-20 12:00N 51°57' E 004°05'0 0.0
2017-Jun-20 11:30N 51°57' E 004°05'0 0.0
2017-Jun-20 11:00N 51°57' E 004°05'0 0.0
2017-Jun-20 10:30N 51°57' E 004°05'0 0.0
2017-Jun-20 10:00N 51°57' E 004°05'0 0.0
2017-Jun-20 09:30N 51°57' E 004°05'0 0.0
2017-Jun-20 09:00N 51°57' E 004°05'0 0.0
2017-Jun-20 08:30N 51°57' E 004°05'0 0.0
2017-Jun-20 08:00N 51°57' E 004°05'0 0.0
2017-Jun-20 07:30N 51°57' E 004°05'0 0.0
2017-Jun-20 07:00N 51°57' E 004°05'0 0.0
2017-Jun-20 06:30N 51°57' E 004°05'0 0.0
2017-Jun-20 06:00N 51°57' E 004°05'0 0.0
2017-Jun-20 05:30N 51°57' E 004°05'0 0.0
2017-Jun-20 05:00N 51°57' E 004°05'0 0.0
2017-Jun-20 04:30N 51°57' E 004°05'0 0.0
2017-Jun-20 04:00N 51°57' E 004°05'0 0.0
2017-Jun-20 03:30N 51°57' E 004°05'0 0.0
2017-Jun-20 03:00N 51°57' E 004°05'0 0.0
2017-Jun-20 02:30N 51°57' E 004°05'0 0.0
2017-Jun-20 02:00N 51°57' E 004°05'0 0.0
2017-Jun-20 01:30N 51°57' E 004°05'0 0.0
2017-Jun-20 01:00N 51°57' E 004°05'0 0.0
2017-Jun-20 00:30N 51°57' E 004°05'0 0.0
2017-Jun-20 00:00N 51°57' E 004°05'0 0.0
2017-Jun-19 23:30N 51°57' E 004°05'0 0.0
2017-Jun-19 23:00N 51°57' E 004°05'0 0.0
2017-Jun-19 22:30N 51°57' E 004°05'0 0.0
2017-Jun-19 22:00N 51°57' E 004°05'0 0.0
2017-Jun-19 21:30N 51°57' E 004°05'0 0.0
2017-Jun-19 21:00N 51°57' E 004°05'0 0.0
2017-Jun-19 20:30N 51°57' E 004°05'0 0.0
2017-Jun-19 20:00N 51°57' E 004°05'0 0.0
2017-Jun-19 19:30N 51°57' E 004°05'0 0.0
2017-Jun-19 18:57N 51°57' E 004°05'0 0.0
2017-Jun-19 18:30N 51°57' E 004°05'0 0.0
2017-Jun-19 18:00N 51°57' E 004°05'0 0.0
2017-Jun-19 17:30N 51°57' E 004°05'0 0.0
2017-Jun-19 17:00N 51°57' E 004°05'0 0.0
2017-Jun-19 16:30N 51°57' E 004°05'0 0.0
2017-Jun-19 16:00N 51°57' E 004°05'0 0.0
2017-Jun-19 15:30N 51°57' E 004°05'0 0.0
2017-Jun-19 15:00N 51°57' E 004°05'0 0.0
2017-Jun-19 14:30N 51°57' E 004°05'0 0.0
2017-Jun-19 13:30N 51°57' E 004°05'0 0.0
2017-Jun-19 13:00N 51°57' E 004°05'0 0.0
2017-Jun-19 12:30N 51°57' E 004°05'0 0.0
2017-Jun-19 12:00N 51°57' E 004°05'0 0.0
2017-Jun-19 11:30N 51°57' E 004°05'0 0.0
2017-Jun-19 11:00N 51°57' E 004°05'0 0.0
2017-Jun-19 10:30N 51°57' E 004°05'0 0.0
2017-Jun-19 10:00N 51°57' E 004°05'0 0.0
2017-Jun-19 09:30N 51°57' E 004°05'0 0.0
2017-Jun-19 09:00N 51°57' E 004°05'0 0.0
2017-Jun-19 08:30N 51°57' E 004°05'0 0.0
2017-Jun-19 08:00N 51°57' E 004°05'0 0.0
2017-Jun-19 07:30N 51°57' E 004°05'0 0.0
2017-Jun-19 07:00N 51°57' E 004°05'0 0.0
2017-Jun-19 06:30N 51°57' E 004°05'0 0.0
2017-Jun-19 06:00N 51°57' E 004°05'0 0.0
2017-Jun-19 05:30N 51°57' E 004°05'0 0.0
2017-Jun-19 05:00N 51°57' E 004°05'0 0.0
2017-Jun-19 04:30N 51°57' E 004°05'0 0.0
2017-Jun-19 04:00N 51°57' E 004°05'0 0.0
2017-Jun-19 03:30N 51°57' E 004°05'0 0.0
2017-Jun-19 03:00N 51°57' E 004°05'0 0.0
2017-Jun-19 02:30N 51°57' E 004°05'0 0.0
2017-Jun-19 02:00N 51°57' E 004°05'0 0.0
2017-Jun-19 01:30N 51°57' E 004°05'0 0.0
2017-Jun-19 00:58N 51°57' E 004°05'0 0.0
2017-Jun-19 00:30N 51°57' E 004°05'0 0.0
2017-Jun-19 00:00N 51°57' E 004°05'0 0.0
2017-Jun-18 23:30N 51°57' E 004°05'0 0.0
2017-Jun-18 23:00N 51°57' E 004°05'0 0.0
2017-Jun-18 22:30N 51°57' E 004°05'0 0.0
2017-Jun-18 22:00N 51°57' E 004°05'0 0.0
2017-Jun-18 21:30N 51°57' E 004°05'0 0.0
2017-Jun-18 21:00N 51°57' E 004°05'0 0.0
2017-Jun-18 20:30N 51°57' E 004°05'0 0.0
2017-Jun-18 20:00N 51°57' E 004°05'0 0.0
2017-Jun-18 19:30N 51°57' E 004°05'0 0.0
2017-Jun-18 19:00N 51°57' E 004°05'0 0.0
2017-Jun-18 18:30N 51°57' E 004°05'0 0.0
2017-Jun-18 18:00N 51°57' E 004°05'0 0.0
2017-Jun-18 17:30N 51°57' E 004°05'0 0.0
2017-Jun-18 17:00N 51°57' E 004°05'0 0.0
2017-Jun-18 16:30N 51°57' E 004°05'0 0.0
2017-Jun-18 16:00N 51°57' E 004°05'0 0.0
2017-Jun-18 15:30N 51°57' E 004°05'0 0.0
2017-Jun-18 15:00N 51°57' E 004°05'0 0.0
2017-Jun-18 14:00N 51°57' E 004°05'0 0.0
2017-Jun-18 13:30N 51°57' E 004°05'0 0.0
2017-Jun-18 13:00N 51°57' E 004°05'0 0.0
2017-Jun-18 12:30N 51°57' E 004°05'0 0.0
2017-Jun-18 12:00N 51°57' E 004°05'0 0.0
2017-Jun-18 11:30N 51°57' E 004°05'0 0.0
2017-Jun-18 11:00N 51°57' E 004°05'0 0.0
2017-Jun-18 10:30N 51°57' E 004°05'0 0.0
2017-Jun-18 10:00N 51°57' E 004°05'0 0.0
2017-Jun-18 09:30N 51°57' E 004°05'0 0.0
2017-Jun-18 09:00N 51°57' E 004°05'0 0.0
2017-Jun-18 08:31N 51°57' E 004°05'0 0.0
2017-Jun-18 08:01N 51°57' E 004°05'0 0.0
2017-Jun-18 07:31N 51°57' E 004°05'0 0.2
2017-Jun-18 07:00N 51°57' E 004°05'1 2.4
2017-Jun-18 06:30N 51°58' E 004°05'4 8.8
2017-Jun-18 06:00N 52°00' E 003°59'612.4
2017-Jun-18 05:31N 52°01' E 003°49'4 8.9
2017-Jun-18 05:00N 52°01' E 003°42'611.4
2017-Jun-18 04:30N 52°00' E 003°33'5 9.9
2017-Jun-18 04:00N 51°59' E 003°25'5 9.0
2017-Jun-18 03:30N 51°55' E 003°20'3 7.0
2017-Jun-18 03:00N 51°54' E 003°15'612.2
2017-Jun-18 02:30N 51°52' E 003°06'612.3
2017-Jun-18 02:00N 51°50' E 002°57'2211.6
2017-Jun-18 00:06N 51°38' E 002°27'111.8
2017-Jun-18 00:00N 51°37' E 002°25'612.1
2017-Jun-17 23:31N 51°33' E 002°19'612.5
2017-Jun-17 23:01N 51°28' E 002°13'  

Dump ship's entire track history